Time,TemperatureF,DewpointF,PressureIn,WindDirection,WindDirectionDegrees,WindSpeedMPH,WindSpeedGustMPH,Humidity,HourlyPrecipIn,Conditions,Clouds,dailyrainin,SolarRadiationWatts/m^2,SoftwareType,DateUTC
2013-10-26 00:24:00,63.0,58.0,-100.00,NE,36,7.0,-999.0,83,0.00,,,-99.99,1.600000,,2013-10-26 04:24:00,
2013-10-26 00:54:00,64.0,59.0,-100.00,NE,37,8.0,-999.0,84,0.00,,,-99.99,1.600000,,2013-10-26 04:54:00,
2013-10-26 01:23:00,63.0,58.0,-100.00,NE,37,8.0,-999.0,84,0.00,,,-99.99,1.600000,,2013-10-26 05:23:00,
2013-10-26 01:52:00,63.0,58.0,-100.00,NE,34,9.0,-999.0,84,0.00,,,-99.99,1.600000,,2013-10-26 05:52:00,
2013-10-26 02:22:00,63.0,58.0,-100.00,NE,36,8.0,-999.0,83,0.00,,,-99.99,1.600000,,2013-10-26 06:22:00,
2013-10-26 02:52:00,63.0,58.0,-100.00,NE,34,8.0,-999.0,84,0.00,,,-99.99,1.600000,,2013-10-26 06:52:00,
2013-10-26 03:22:00,62.0,57.0,-100.00,NE,36,7.0,-999.0,84,0.00,,,-99.99,1.600000,,2013-10-26 07:22:00,
2013-10-26 03:52:00,62.0,57.0,-100.00,NNE,32,6.0,-999.0,85,0.00,,,-99.99,1.600000,,2013-10-26 07:52:00,
2013-10-26 04:22:00,61.0,57.0,-100.00,NNE,27,7.0,-999.0,86,0.00,,,-99.99,1.600000,,2013-10-26 08:22:00,
2013-10-26 04:52:00,61.0,57.0,-100.00,NNE,26,7.0,-999.0,87,0.00,,,-99.99,1.600000,,2013-10-26 08:52:00,
2013-10-26 05:22:00,61.0,57.0,-100.00,NNE,33,6.0,-999.0,87,0.00,,,-99.99,1.600000,,2013-10-26 09:22:00,
2013-10-26 05:53:00,60.0,57.0,-100.00,NNE,29,6.0,-999.0,87,0.00,,,-99.99,1.500000,,2013-10-26 09:53:00,
2013-10-26 06:23:00,60.0,57.0,-100.00,NNE,24,6.0,-999.0,88,0.00,,,-99.99,1.500000,,2013-10-26 10:23:00,
2013-10-26 06:53:00,60.0,56.0,-100.00,NNE,23,6.0,-999.0,88,0.00,,,-99.99,1.500000,,2013-10-26 10:53:00,
2013-10-26 07:22:00,60.0,57.0,-100.00,NNE,15,6.0,-999.0,88,0.00,,,-99.99,1.500000,,2013-10-26 11:22:00,
2013-10-26 07:52:00,59.0,56.0,-100.00,North,6,7.0,-999.0,89,0.00,,,-99.99,2.000000,,2013-10-26 11:52:00,
2013-10-26 08:22:00,60.0,57.0,-100.00,NNE,14,6.0,-999.0,90,0.00,,,-99.99,31.200001,,2013-10-26 12:22:00,
2013-10-26 08:52:00,61.0,58.0,-100.00,NNE,20,6.0,-999.0,89,0.00,,,-99.99,84.099998,,2013-10-26 12:52:00,
2013-10-26 09:21:00,64.0,59.0,-100.00,NNE,23,8.0,-999.0,85,0.00,,,-99.99,257.100006,,2013-10-26 13:21:00,
2013-10-26 09:52:00,64.0,59.0,-100.00,NNE,29,7.0,-999.0,81,0.00,,,-99.99,211.300003,,2013-10-26 13:52:00,
2013-10-26 10:22:00,66.0,60.0,-100.00,NNE,33,6.0,-999.0,79,0.00,,,-99.99,204.100006,,2013-10-26 14:22:00,
2013-10-26 10:52:00,69.0,60.0,-100.00,NE,51,6.0,-999.0,72,0.00,,,-99.99,524.000000,,2013-10-26 14:52:00,
2013-10-26 11:23:00,72.0,60.0,-100.00,ENE,62,5.0,-999.0,66,0.00,,,-99.99,529.099976,,2013-10-26 15:23:00,
2013-10-26 11:55:00,73.0,60.0,-100.00,ENE,58,5.0,-999.0,62,0.00,,,-99.99,692.500000,,2013-10-26 15:55:00,
2013-10-26 12:24:00,75.0,60.0,-100.00,North,11,6.0,-999.0,59,0.00,,,-99.99,633.500000,,2013-10-26 16:24:00,
2013-10-26 12:54:00,76.0,58.0,-100.00,NNE,19,5.0,-999.0,54,0.00,,,-99.99,663.599976,,2013-10-26 16:54:00,
2013-10-26 13:23:00,76.0,59.0,-100.00,NNE,31,4.0,-999.0,55,0.00,,,-99.99,713.000000,,2013-10-26 17:23:00,
2013-10-26 13:52:00,77.0,58.0,-100.00,NNE,32,5.0,-999.0,51,0.00,,,-99.99,708.000000,,2013-10-26 17:52:00,
2013-10-26 14:22:00,78.0,54.0,-100.00,NE,37,5.0,-999.0,44,0.00,,,-99.99,693.000000,,2013-10-26 18:22:00,
2013-10-26 14:52:00,79.0,52.0,-100.00,NW,317,4.0,-999.0,39,0.00,,,-99.99,665.400024,,2013-10-26 18:52:00,
2013-10-26 15:22:00,80.0,53.0,-100.00,NNW,329,5.0,-999.0,39,0.00,,,-99.99,619.900024,,2013-10-26 19:22:00,
2013-10-26 15:52:00,80.0,53.0,-100.00,NW,319,5.0,-999.0,39,0.00,,,-99.99,559.000000,,2013-10-26 19:52:00,
2013-10-26 16:22:00,80.0,53.0,-100.00,North,359,4.0,-999.0,40,0.00,,,-99.99,486.100006,,2013-10-26 20:22:00,
2013-10-26 16:52:00,80.0,53.0,-100.00,NE,37,4.0,-999.0,39,0.00,,,-99.99,403.799988,,2013-10-26 20:52:00,
2013-10-26 17:22:00,80.0,54.0,-100.00,North,359,5.0,-999.0,41,0.00,,,-99.99,312.899994,,2013-10-26 21:22:00,
2013-10-26 17:55:00,79.0,54.0,-100.00,North,356,5.0,-999.0,41,0.00,,,-99.99,218.800003,,2013-10-26 21:55:00,
2013-10-26 18:24:00,77.0,52.0,-100.00,NE,54,6.0,-999.0,42,0.00,,,-99.99,129.800003,,2013-10-26 22:24:00,
2013-10-26 18:54:00,74.0,52.0,-100.00,ENE,63,5.0,-999.0,45,0.00,,,-99.99,30.000000,,2013-10-26 22:54:00,
2013-10-26 19:22:00,71.0,53.0,-100.00,ENE,63,4.0,-999.0,52,0.00,,,-99.99,3.700000,,2013-10-26 23:22:00,
2013-10-26 19:42:00,69.0,54.0,-100.00,NE,48,4.0,-999.0,58,0.00,,,-99.99,1.500000,,2013-10-26 23:42:00,
2013-10-26 19:52:00,68.0,55.0,-100.00,NNE,23,3.0,-999.0,63,0.00,,,-99.99,1.400000,,2013-10-26 23:52:00,
2013-10-26 20:22:00,66.0,56.0,-100.00,NNE,20,4.0,-999.0,70,0.00,,,-99.99,1.300000,,2013-10-27 00:22:00,
2013-10-26 20:52:00,65.0,57.0,-100.00,NNE,12,4.0,-999.0,72,0.00,,,-99.99,1.400000,,2013-10-27 00:52:00,
2013-10-26 21:22:00,64.0,55.0,-100.00,NNE,28,5.0,-999.0,72,0.00,,,-99.99,1.300000,,2013-10-27 01:22:00,
2013-10-26 21:52:00,64.0,55.0,-100.00,NNE,17,5.0,-999.0,72,0.00,,,-99.99,1.400000,,2013-10-27 01:52:00,
2013-10-26 22:21:00,65.0,55.0,-100.00,NNE,32,6.0,-999.0,69,0.00,,,-99.99,1.400000,,2013-10-27 02:21:00,
2013-10-26 22:52:00,64.0,56.0,-100.00,NE,42,6.0,-999.0,73,0.00,,,-99.99,1.400000,,2013-10-27 02:52:00,
2013-10-26 23:22:00,64.0,56.0,-100.00,NE,40,6.0,-999.0,76,0.00,,,-99.99,1.400000,,2013-10-27 03:22:00,
2013-10-26 23:55:00,63.0,56.0,-100.00,NE,44,5.0,-999.0,80,0.00,,,-99.99,1.400000,,2013-10-27 03:55:00,